sensor_id;sensor_type;location;lat;lon;timestamp;P1;durP1;ratioP1;P2;durP2;ratioP2
19167;SDS011;9716;53.114;18.040;2022-10-16T00:01:27;31.55;;;14.02;;
19167;SDS011;9716;53.114;18.040;2022-10-16T00:03:57;22.80;;;12.48;;
19167;SDS011;9716;53.114;18.040;2022-10-16T00:06:27;27.88;;;14.32;;
19167;SDS011;9716;53.114;18.040;2022-10-16T00:08:59;29.13;;;13.82;;
19167;SDS011;9716;53.114;18.040;2022-10-16T00:11:30;28.05;;;12.48;;
19167;SDS011;9716;53.114;18.040;2022-10-16T00:14:03;26.35;;;12.40;;
19167;SDS011;9716;53.114;18.040;2022-10-16T00:16:33;26.80;;;13.18;;
19167;SDS011;9716;53.114;18.040;2022-10-16T00:19:02;27.15;;;13.50;;
19167;SDS011;9716;53.114;18.040;2022-10-16T00:21:31;25.48;;;13.23;;
19167;SDS011;9716;53.114;18.040;2022-10-16T00:24:01;28.45;;;12.88;;
19167;SDS011;9716;53.114;18.040;2022-10-16T00:26:33;34.58;;;13.57;;
19167;SDS011;9716;53.114;18.040;2022-10-16T00:29:03;36.83;;;14.57;;
19167;SDS011;9716;53.114;18.040;2022-10-16T00:31:32;30.13;;;13.93;;
19167;SDS011;9716;53.114;18.040;2022-10-16T00:34:00;30.55;;;14.02;;
19167;SDS011;9716;53.114;18.040;2022-10-16T00:36:29;22.98;;;12.55;;
19167;SDS011;9716;53.114;18.040;2022-10-16T00:38:58;32.25;;;15.27;;
19167;SDS011;9716;53.114;18.040;2022-10-16T00:41:28;30.17;;;14.15;;
19167;SDS011;9716;53.114;18.040;2022-10-16T00:43:59;25.40;;;14.02;;
19167;SDS011;9716;53.114;18.040;2022-10-16T00:46:29;32.38;;;14.60;;
19167;SDS011;9716;53.114;18.040;2022-10-16T00:49:03;34.90;;;16.05;;
19167;SDS011;9716;53.114;18.040;2022-10-16T00:51:34;36.72;;;15.60;;
19167;SDS011;9716;53.114;18.040;2022-10-16T00:54:04;33.47;;;14.30;;
19167;SDS011;9716;53.114;18.040;2022-10-16T00:56:37;23.60;;;13.48;;
19167;SDS011;9716;53.114;18.040;2022-10-16T00:59:07;30.55;;;14.32;;
19167;SDS011;9716;53.114;18.040;2022-10-16T01:01:42;36.17;;;15.60;;
19167;SDS011;9716;53.114;18.040;2022-10-16T01:04:11;37.20;;;13.68;;
19167;SDS011;9716;53.114;18.040;2022-10-16T01:06:40;34.88;;;14.80;;
19167;SDS011;9716;53.114;18.040;2022-10-16T01:09:30;28.42;;;15.07;;
19167;SDS011;9716;53.114;18.040;2022-10-16T01:12:06;29.02;;;13.82;;
19167;SDS011;9716;53.114;18.040;2022-10-16T01:14:43;42.15;;;16.55;;
19167;SDS011;9716;53.114;18.040;2022-10-16T01:17:17;27.65;;;13.65;;
19167;SDS011;9716;53.114;18.040;2022-10-16T01:19:57;31.98;;;14.52;;
19167;SDS011;9716;53.114;18.040;2022-10-16T01:22:37;32.63;;;13.45;;
19167;SDS011;9716;53.114;18.040;2022-10-16T01:25:14;26.35;;;14.02;;
19167;SDS011;9716;53.114;18.040;2022-10-16T01:27:49;29.02;;;13.65;;
19167;SDS011;9716;53.114;18.040;2022-10-16T01:30:21;28.80;;;13.27;;
19167;SDS011;9716;53.114;18.040;2022-10-16T01:32:54;36.13;;;14.98;;
19167;SDS011;9716;53.114;18.040;2022-10-16T01:35:26;36.80;;;14.27;;
19167;SDS011;9716;53.114;18.040;2022-10-16T01:37:58;27.85;;;13.15;;
19167;SDS011;9716;53.114;18.040;2022-10-16T01:40:31;25.42;;;13.88;;
19167;SDS011;9716;53.114;18.040;2022-10-16T01:43:04;25.10;;;13.18;;
19167;SDS011;9716;53.114;18.040;2022-10-16T01:45:36;31.25;;;13.77;;
19167;SDS011;9716;53.114;18.040;2022-10-16T01:48:05;30.45;;;14.43;;
19167;SDS011;9716;53.114;18.040;2022-10-16T01:50:37;22.63;;;12.68;;
19167;SDS011;9716;53.114;18.040;2022-10-16T01:53:08;27.63;;;12.77;;
19167;SDS011;9716;53.114;18.040;2022-10-16T01:55:40;24.73;;;13.30;;
19167;SDS011;9716;53.114;18.040;2022-10-16T01:58:13;30.77;;;14.77;;
19167;SDS011;9716;53.114;18.040;2022-10-16T02:00:42;30.65;;;12.50;;
19167;SDS011;9716;53.114;18.040;2022-10-16T02:03:13;23.35;;;12.07;;
19167;SDS011;9716;53.114;18.040;2022-10-16T02:05:46;25.23;;;13.13;;
19167;SDS011;9716;53.114;18.040;2022-10-16T02:08:18;27.00;;;13.15;;
19167;SDS011;9716;53.114;18.040;2022-10-16T02:10:47;28.40;;;14.10;;
19167;SDS011;9716;53.114;18.040;2022-10-16T02:13:17;27.30;;;13.20;;
19167;SDS011;9716;53.114;18.040;2022-10-16T02:15:49;26.00;;;13.25;;
19167;SDS011;9716;53.114;18.040;2022-10-16T02:18:18;27.90;;;12.65;;
19167;SDS011;9716;53.114;18.040;2022-10-16T02:20:48;23.73;;;12.85;;
19167;SDS011;9716;53.114;18.040;2022-10-16T02:23:24;20.00;;;11.82;;
19167;SDS011;9716;53.114;18.040;2022-10-16T02:26:01;31.25;;;13.07;;
19167;SDS011;9716;53.114;18.040;2022-10-16T02:28:34;37.22;;;12.82;;
19167;SDS011;9716;53.114;18.040;2022-10-16T02:31:08;31.75;;;13.63;;
19167;SDS011;9716;53.114;18.040;2022-10-16T02:33:40;32.03;;;13.70;;
19167;SDS011;9716;53.114;18.040;2022-10-16T02:36:11;26.40;;;12.07;;
19167;SDS011;9716;53.114;18.040;2022-10-16T02:38:40;27.73;;;13.48;;
19167;SDS011;9716;53.114;18.040;2022-10-16T02:41:09;31.63;;;13.88;;
19167;SDS011;9716;53.114;18.040;2022-10-16T02:43:39;29.55;;;12.63;;
19167;SDS011;9716;53.114;18.040;2022-10-16T02:46:07;27.80;;;13.27;;
19167;SDS011;9716;53.114;18.040;2022-10-16T02:48:36;26.25;;;13.20;;
19167;SDS011;9716;53.114;18.040;2022-10-16T02:51:05;23.90;;;12.77;;
19167;SDS011;9716;53.114;18.040;2022-10-16T02:53:34;24.25;;;13.75;;
19167;SDS011;9716;53.114;18.040;2022-10-16T02:56:02;27.88;;;12.98;;
19167;SDS011;9716;53.114;18.040;2022-10-16T02:58:31;20.35;;;12.57;;
19167;SDS011;9716;53.114;18.040;2022-10-16T03:01:01;25.40;;;13.80;;
19167;SDS011;9716;53.114;18.040;2022-10-16T03:03:29;23.60;;;12.75;;
19167;SDS011;9716;53.114;18.040;2022-10-16T03:05:57;24.90;;;11.55;;
19167;SDS011;9716;53.114;18.040;2022-10-16T03:08:26;27.52;;;13.10;;
19167;SDS011;9716;53.114;18.040;2022-10-16T03:10:54;26.80;;;13.20;;
19167;SDS011;9716;53.114;18.040;2022-10-16T03:13:23;25.80;;;13.80;;
19167;SDS011;9716;53.114;18.040;2022-10-16T03:15:51;24.98;;;12.75;;
19167;SDS011;9716;53.114;18.040;2022-10-16T03:18:21;28.35;;;13.52;;
19167;SDS011;9716;53.114;18.040;2022-10-16T03:20:49;24.63;;;13.65;;
19167;SDS011;9716;53.114;18.040;2022-10-16T03:23:18;28.55;;;13.00;;
19167;SDS011;9716;53.114;18.040;2022-10-16T03:25:46;28.77;;;12.40;;
19167;SDS011;9716;53.114;18.040;2022-10-16T03:28:15;25.08;;;12.27;;
19167;SDS011;9716;53.114;18.040;2022-10-16T03:30:43;28.95;;;12.15;;
19167;SDS011;9716;53.114;18.040;2022-10-16T03:33:12;26.45;;;13.25;;
19167;SDS011;9716;53.114;18.040;2022-10-16T03:35:41;25.23;;;11.00;;
19167;SDS011;9716;53.114;18.040;2022-10-16T03:38:10;23.92;;;11.15;;
19167;SDS011;9716;53.114;18.040;2022-10-16T03:40:38;31.30;;;13.30;;
19167;SDS011;9716;53.114;18.040;2022-10-16T03:43:07;24.73;;;12.02;;
19167;SDS011;9716;53.114;18.040;2022-10-16T03:45:35;29.45;;;13.20;;
19167;SDS011;9716;53.114;18.040;2022-10-16T03:48:03;24.45;;;12.35;;
19167;SDS011;9716;53.114;18.040;2022-10-16T03:50:32;27.77;;;11.90;;
19167;SDS011;9716;53.114;18.040;2022-10-16T03:53:02;29.30;;;13.45;;
19167;SDS011;9716;53.114;18.040;2022-10-16T03:55:31;24.90;;;11.80;;
19167;SDS011;9716;53.114;18.040;2022-10-16T03:57:59;20.35;;;12.02;;
19167;SDS011;9716;53.114;18.040;2022-10-16T04:00:28;23.63;;;11.38;;
19167;SDS011;9716;53.114;18.040;2022-10-16T04:02:56;22.58;;;12.40;;
19167;SDS011;9716;53.114;18.040;2022-10-16T04:05:25;17.60;;;11.48;;
19167;SDS011;9716;53.114;18.040;2022-10-16T04:07:53;22.63;;;11.63;;
19167;SDS011;9716;53.114;18.040;2022-10-16T04:10:23;25.40;;;11.65;;
19167;SDS011;9716;53.114;18.040;2022-10-16T04:12:51;27.40;;;12.45;;
19167;SDS011;9716;53.114;18.040;2022-10-16T04:15:21;28.48;;;11.60;;
19167;SDS011;9716;53.114;18.040;2022-10-16T04:17:50;22.80;;;11.40;;
19167;SDS011;9716;53.114;18.040;2022-10-16T04:20:19;25.05;;;12.05;;
19167;SDS011;9716;53.114;18.040;2022-10-16T04:22:47;28.75;;;12.52;;
19167;SDS011;9716;53.114;18.040;2022-10-16T04:25:16;24.63;;;12.20;;
19167;SDS011;9716;53.114;18.040;2022-10-16T04:27:46;19.48;;;11.18;;
19167;SDS011;9716;53.114;18.040;2022-10-16T04:30:14;23.13;;;11.38;;
19167;SDS011;9716;53.114;18.040;2022-10-16T04:32:47;23.42;;;10.95;;
19167;SDS011;9716;53.114;18.040;2022-10-16T04:35:16;22.30;;;11.18;;
19167;SDS011;9716;53.114;18.040;2022-10-16T04:37:45;25.73;;;12.27;;
19167;SDS011;9716;53.114;18.040;2022-10-16T04:40:14;22.63;;;11.80;;
19167;SDS011;9716;53.114;18.040;2022-10-16T04:42:43;17.83;;;10.10;;
19167;SDS011;9716;53.114;18.040;2022-10-16T04:45:12;18.60;;;11.13;;
19167;SDS011;9716;53.114;18.040;2022-10-16T04:47:43;23.20;;;11.00;;
19167;SDS011;9716;53.114;18.040;2022-10-16T04:50:11;19.73;;;10.52;;
19167;SDS011;9716;53.114;18.040;2022-10-16T04:52:39;27.55;;;12.15;;
19167;SDS011;9716;53.114;18.040;2022-10-16T04:55:08;22.83;;;11.50;;
19167;SDS011;9716;53.114;18.040;2022-10-16T04:57:36;24.88;;;11.18;;
19167;SDS011;9716;53.114;18.040;2022-10-16T05:00:05;23.27;;;10.95;;
19167;SDS011;9716;53.114;18.040;2022-10-16T05:02:36;22.83;;;11.00;;
19167;SDS011;9716;53.114;18.040;2022-10-16T05:05:04;21.52;;;10.95;;
19167;SDS011;9716;53.114;18.040;2022-10-16T05:07:33;27.15;;;11.80;;
19167;SDS011;9716;53.114;18.040;2022-10-16T05:10:02;20.88;;;10.82;;
19167;SDS011;9716;53.114;18.040;2022-10-16T05:12:31;27.17;;;11.20;;
19167;SDS011;9716;53.114;18.040;2022-10-16T05:15:00;16.73;;;10.23;;
19167;SDS011;9716;53.114;18.040;2022-10-16T05:17:28;21.77;;;10.57;;
19167;SDS011;9716;53.114;18.040;2022-10-16T05:19:58;22.48;;;11.20;;
19167;SDS011;9716;53.114;18.040;2022-10-16T05:22:26;27.77;;;12.35;;
19167;SDS011;9716;53.114;18.040;2022-10-16T05:24:55;22.15;;;11.25;;
19167;SDS011;9716;53.114;18.040;2022-10-16T05:27:23;17.88;;;10.30;;
19167;SDS011;9716;53.114;18.040;2022-10-16T05:29:52;17.38;;;10.32;;
19167;SDS011;9716;53.114;18.040;2022-10-16T05:32:20;23.25;;;11.55;;
19167;SDS011;9716;53.114;18.040;2022-10-16T05:34:50;30.30;;;11.25;;
19167;SDS011;9716;53.114;18.040;2022-10-16T05:37:20;22.80;;;11.25;;
19167;SDS011;9716;53.114;18.040;2022-10-16T05:39:48;22.98;;;11.32;;
19167;SDS011;9716;53.114;18.040;2022-10-16T05:42:16;24.60;;;10.68;;
19167;SDS011;9716;53.114;18.040;2022-10-16T05:44:45;16.92;;;9.85;;
19167;SDS011;9716;53.114;18.040;2022-10-16T05:47:14;25.15;;;11.27;;
19167;SDS011;9716;53.114;18.040;2022-10-16T05:49:42;22.85;;;9.90;;
19167;SDS011;9716;53.114;18.040;2022-10-16T05:52:10;22.48;;;11.70;;
19167;SDS011;9716;53.114;18.040;2022-10-16T05:54:40;20.05;;;10.98;;
19167;SDS011;9716;53.114;18.040;2022-10-16T05:57:08;21.17;;;11.20;;
19167;SDS011;9716;53.114;18.040;2022-10-16T05:59:37;23.42;;;11.00;;
19167;SDS011;9716;53.114;18.040;2022-10-16T06:02:05;26.58;;;11.43;;
19167;SDS011;9716;53.114;18.040;2022-10-16T06:04:36;16.45;;;9.82;;
19167;SDS011;9716;53.114;18.040;2022-10-16T06:07:04;22.77;;;10.43;;
19167;SDS011;9716;53.114;18.040;2022-10-16T06:09:32;17.48;;;9.45;;
19167;SDS011;9716;53.114;18.040;2022-10-16T06:12:02;19.88;;;10.95;;
19167;SDS011;9716;53.114;18.040;2022-10-16T06:14:31;17.30;;;9.98;;
19167;SDS011;9716;53.114;18.040;2022-10-16T06:16:59;24.42;;;11.43;;
19167;SDS011;9716;53.114;18.040;2022-10-16T06:19:28;22.25;;;10.13;;
19167;SDS011;9716;53.114;18.040;2022-10-16T06:21:58;16.55;;;8.93;;
19167;SDS011;9716;53.114;18.040;2022-10-16T06:24:26;15.20;;;8.98;;
19167;SDS011;9716;53.114;18.040;2022-10-16T06:26:55;17.15;;;9.73;;
19167;SDS011;9716;53.114;18.040;2022-10-16T06:29:24;18.45;;;9.68;;
19167;SDS011;9716;53.114;18.040;2022-10-16T06:31:53;19.75;;;10.70;;
19167;SDS011;9716;53.114;18.040;2022-10-16T06:34:21;27.65;;;9.18;;
19167;SDS011;9716;53.114;18.040;2022-10-16T06:36:50;15.80;;;8.38;;
19167;SDS011;9716;53.114;18.040;2022-10-16T06:39:18;24.05;;;9.00;;
19167;SDS011;9716;53.114;18.040;2022-10-16T06:41:47;19.85;;;10.00;;
19167;SDS011;9716;53.114;18.040;2022-10-16T06:44:15;21.45;;;8.93;;
19167;SDS011;9716;53.114;18.040;2022-10-16T06:46:45;18.95;;;9.63;;
19167;SDS011;9716;53.114;18.040;2022-10-16T06:49:14;20.83;;;9.32;;
19167;SDS011;9716;53.114;18.040;2022-10-16T06:51:48;21.23;;;9.82;;
19167;SDS011;9716;53.114;18.040;2022-10-16T06:54:16;13.60;;;7.65;;
19167;SDS011;9716;53.114;18.040;2022-10-16T06:56:45;15.50;;;7.63;;
19167;SDS011;9716;53.114;18.040;2022-10-16T06:59:13;17.15;;;8.85;;
19167;SDS011;9716;53.114;18.040;2022-10-16T07:01:41;17.15;;;8.60;;
19167;SDS011;9716;53.114;18.040;2022-10-16T07:04:11;15.73;;;8.70;;
19167;SDS011;9716;53.114;18.040;2022-10-16T07:06:40;14.20;;;8.20;;
19167;SDS011;9716;53.114;18.040;2022-10-16T07:09:09;18.83;;;8.30;;
19167;SDS011;9716;53.114;18.040;2022-10-16T07:11:38;17.60;;;7.95;;
19167;SDS011;9716;53.114;18.040;2022-10-16T07:14:12;11.63;;;7.10;;
19167;SDS011;9716;53.114;18.040;2022-10-16T07:16:45;15.30;;;7.85;;
19167;SDS011;9716;53.114;18.040;2022-10-16T07:19:15;11.73;;;7.35;;
19167;SDS011;9716;53.114;18.040;2022-10-16T07:21:45;13.63;;;7.43;;
19167;SDS011;9716;53.114;18.040;2022-10-16T07:24:14;11.73;;;7.45;;
19167;SDS011;9716;53.114;18.040;2022-10-16T07:26:44;12.07;;;6.85;;
19167;SDS011;9716;53.114;18.040;2022-10-16T07:29:14;11.88;;;6.38;;
19167;SDS011;9716;53.114;18.040;2022-10-16T07:31:44;17.17;;;7.03;;
19167;SDS011;9716;53.114;18.040;2022-10-16T07:34:13;12.85;;;7.68;;
19167;SDS011;9716;53.114;18.040;2022-10-16T07:36:47;12.05;;;6.18;;
19167;SDS011;9716;53.114;18.040;2022-10-16T07:39:15;14.48;;;6.75;;
19167;SDS011;9716;53.114;18.040;2022-10-16T07:41:44;10.93;;;6.38;;
19167;SDS011;9716;53.114;18.040;2022-10-16T07:44:12;13.48;;;6.57;;
19167;SDS011;9716;53.114;18.040;2022-10-16T07:46:41;11.82;;;6.13;;
19167;SDS011;9716;53.114;18.040;2022-10-16T07:49:09;11.98;;;5.78;;
19167;SDS011;9716;53.114;18.040;2022-10-16T07:51:39;11.90;;;6.07;;
19167;SDS011;9716;53.114;18.040;2022-10-16T07:54:08;12.73;;;5.53;;
19167;SDS011;9716;53.114;18.040;2022-10-16T07:56:36;10.73;;;6.20;;
19167;SDS011;9716;53.114;18.040;2022-10-16T07:59:09;9.63;;;6.10;;
19167;SDS011;9716;53.114;18.040;2022-10-16T08:01:38;11.02;;;5.43;;
19167;SDS011;9716;53.114;18.040;2022-10-16T08:04:06;7.80;;;5.00;;
19167;SDS011;9716;53.114;18.040;2022-10-16T08:06:35;7.72;;;4.65;;
19167;SDS011;9716;53.114;18.040;2022-10-16T08:09:06;10.35;;;5.47;;
19167;SDS011;9716;53.114;18.040;2022-10-16T08:11:35;11.55;;;5.55;;
19167;SDS011;9716;53.114;18.040;2022-10-16T08:14:03;8.55;;;5.28;;
19167;SDS011;9716;53.114;18.040;2022-10-16T08:16:32;9.30;;;5.22;;
19167;SDS011;9716;53.114;18.040;2022-10-16T08:19:00;10.00;;;5.15;;
19167;SDS011;9716;53.114;18.040;2022-10-16T08:21:29;9.20;;;4.65;;
19167;SDS011;9716;53.114;18.040;2022-10-16T08:23:57;7.82;;;5.43;;
19167;SDS011;9716;53.114;18.040;2022-10-16T08:26:28;6.50;;;4.38;;
19167;SDS011;9716;53.114;18.040;2022-10-16T08:28:56;8.70;;;4.82;;
19167;SDS011;9716;53.114;18.040;2022-10-16T08:31:25;10.95;;;5.35;;
19167;SDS011;9716;53.114;18.040;2022-10-16T08:33:54;7.38;;;4.03;;
19167;SDS011;9716;53.114;18.040;2022-10-16T08:36:22;8.88;;;4.53;;
19167;SDS011;9716;53.114;18.040;2022-10-16T08:38:50;6.88;;;4.22;;
19167;SDS011;9716;53.114;18.040;2022-10-16T08:41:23;8.18;;;4.93;;
19167;SDS011;9716;53.114;18.040;2022-10-16T08:44:29;8.35;;;4.28;;
19167;SDS011;9716;53.114;18.040;2022-10-16T08:47:07;8.88;;;4.80;;
19167;SDS011;9716;53.114;18.040;2022-10-16T08:49:42;6.60;;;4.00;;
19167;SDS011;9716;53.114;18.040;2022-10-16T08:52:15;7.55;;;4.03;;
19167;SDS011;9716;53.114;18.040;2022-10-16T08:54:44;8.18;;;4.25;;
19167;SDS011;9716;53.114;18.040;2022-10-16T08:57:19;3.83;;;3.10;;
19167;SDS011;9716;53.114;18.040;2022-10-16T08:59:50;6.28;;;3.35;;
19167;SDS011;9716;53.114;18.040;2022-10-16T09:02:23;5.05;;;4.15;;
19167;SDS011;9716;53.114;18.040;2022-10-16T09:05:02;10.82;;;4.40;;
19167;SDS011;9716;53.114;18.040;2022-10-16T09:07:43;7.40;;;4.30;;
19167;SDS011;9716;53.114;18.040;2022-10-16T09:10:22;6.03;;;3.92;;
19167;SDS011;9716;53.114;18.040;2022-10-16T09:13:06;5.35;;;3.65;;
19167;SDS011;9716;53.114;18.040;2022-10-16T09:15:45;4.53;;;3.63;;
19167;SDS011;9716;53.114;18.040;2022-10-16T09:18:21;6.30;;;4.10;;
19167;SDS011;9716;53.114;18.040;2022-10-16T09:20:59;6.55;;;3.95;;
19167;SDS011;9716;53.114;18.040;2022-10-16T09:23:33;6.03;;;3.97;;
19167;SDS011;9716;53.114;18.040;2022-10-16T09:26:03;6.13;;;3.63;;
19167;SDS011;9716;53.114;18.040;2022-10-16T09:28:38;12.10;;;3.88;;
19167;SDS011;9716;53.114;18.040;2022-10-16T09:31:09;5.22;;;3.90;;
19167;SDS011;9716;53.114;18.040;2022-10-16T09:33:48;8.23;;;3.83;;
19167;SDS011;9716;53.114;18.040;2022-10-16T09:36:20;5.75;;;3.78;;
19167;SDS011;9716;53.114;18.040;2022-10-16T09:39:01;6.80;;;4.10;;
19167;SDS011;9716;53.114;18.040;2022-10-16T09:41:33;5.03;;;3.85;;
19167;SDS011;9716;53.114;18.040;2022-10-16T09:44:05;7.05;;;4.18;;
19167;SDS011;9716;53.114;18.040;2022-10-16T09:46:46;5.32;;;4.13;;
19167;SDS011;9716;53.114;18.040;2022-10-16T09:49:19;7.40;;;3.75;;
19167;SDS011;9716;53.114;18.040;2022-10-16T09:51:50;5.38;;;3.33;;
19167;SDS011;9716;53.114;18.040;2022-10-16T09:54:30;6.95;;;3.78;;
19167;SDS011;9716;53.114;18.040;2022-10-16T09:57:04;7.82;;;3.65;;
19167;SDS011;9716;53.114;18.040;2022-10-16T09:59:34;6.03;;;4.07;;
19167;SDS011;9716;53.114;18.040;2022-10-16T10:02:14;5.72;;;4.00;;
19167;SDS011;9716;53.114;18.040;2022-10-16T10:04:46;8.82;;;3.35;;
19167;SDS011;9716;53.114;18.040;2022-10-16T10:07:18;5.82;;;3.50;;
19167;SDS011;9716;53.114;18.040;2022-10-16T10:09:52;6.35;;;3.45;;
19167;SDS011;9716;53.114;18.040;2022-10-16T10:12:23;5.28;;;3.58;;
19167;SDS011;9716;53.114;18.040;2022-10-16T10:14:54;5.18;;;3.10;;
19167;SDS011;9716;53.114;18.040;2022-10-16T10:17:24;5.03;;;3.97;;
19167;SDS011;9716;53.114;18.040;2022-10-16T10:19:54;4.20;;;2.95;;
19167;SDS011;9716;53.114;18.040;2022-10-16T10:22:25;4.35;;;3.30;;
19167;SDS011;9716;53.114;18.040;2022-10-16T10:25:12;7.05;;;4.00;;
19167;SDS011;9716;53.114;18.040;2022-10-16T10:28:00;9.57;;;4.05;;
19167;SDS011;9716;53.114;18.040;2022-10-16T10:30:39;7.82;;;4.18;;
19167;SDS011;9716;53.114;18.040;2022-10-16T10:33:14;7.32;;;3.78;;
19167;SDS011;9716;53.114;18.040;2022-10-16T10:35:51;15.05;;;3.88;;
19167;SDS011;9716;53.114;18.040;2022-10-16T10:38:30;7.25;;;3.00;;
19167;SDS011;9716;53.114;18.040;2022-10-16T10:41:08;4.95;;;3.20;;
19167;SDS011;9716;53.114;18.040;2022-10-16T10:43:56;4.72;;;2.72;;
19167;SDS011;9716;53.114;18.040;2022-10-16T10:46:34;5.32;;;3.10;;
19167;SDS011;9716;53.114;18.040;2022-10-16T10:49:25;6.25;;;3.50;;
19167;SDS011;9716;53.114;18.040;2022-10-16T10:52:23;3.67;;;3.28;;
19167;SDS011;9716;53.114;18.040;2022-10-16T10:55:09;7.72;;;3.65;;
19167;SDS011;9716;53.114;18.040;2022-10-16T10:57:57;4.93;;;2.97;;
19167;SDS011;9716;53.114;18.040;2022-10-16T11:00:45;6.25;;;3.50;;
19167;SDS011;9716;53.114;18.040;2022-10-16T11:03:27;5.38;;;3.08;;
19167;SDS011;9716;53.114;18.040;2022-10-16T11:06:10;4.38;;;3.13;;
19167;SDS011;9716;53.114;18.040;2022-10-16T11:08:43;5.22;;;3.15;;
19167;SDS011;9716;53.114;18.040;2022-10-16T11:11:18;7.47;;;3.28;;
19167;SDS011;9716;53.114;18.040;2022-10-16T11:13:54;2.95;;;2.33;;
19167;SDS011;9716;53.114;18.040;2022-10-16T11:16:26;4.57;;;2.85;;
19167;SDS011;9716;53.114;18.040;2022-10-16T11:19:01;4.32;;;2.78;;
19167;SDS011;9716;53.114;18.040;2022-10-16T11:21:39;4.03;;;2.50;;
19167;SDS011;9716;53.114;18.040;2022-10-16T11:24:16;5.82;;;2.70;;
19167;SDS011;9716;53.114;18.040;2022-10-16T11:26:49;4.25;;;2.83;;
19167;SDS011;9716;53.114;18.040;2022-10-16T11:29:22;4.78;;;3.38;;
19167;SDS011;9716;53.114;18.040;2022-10-16T11:31:55;7.05;;;3.28;;
19167;SDS011;9716;53.114;18.040;2022-10-16T11:34:29;16.50;;;3.33;;
19167;SDS011;9716;53.114;18.040;2022-10-16T11:37:04;4.15;;;2.47;;
19167;SDS011;9716;53.114;18.040;2022-10-16T11:39:37;4.15;;;2.90;;
19167;SDS011;9716;53.114;18.040;2022-10-16T11:42:09;4.13;;;2.90;;
19167;SDS011;9716;53.114;18.040;2022-10-16T11:44:44;7.85;;;3.45;;
19167;SDS011;9716;53.114;18.040;2022-10-16T11:47:22;5.43;;;3.22;;
19167;SDS011;9716;53.114;18.040;2022-10-16T11:50:23;4.40;;;2.85;;
19167;SDS011;9716;53.114;18.040;2022-10-16T11:52:58;5.90;;;3.25;;
19167;SDS011;9716;53.114;18.040;2022-10-16T11:55:33;5.25;;;3.05;;
19167;SDS011;9716;53.114;18.040;2022-10-16T11:58:13;5.03;;;2.60;;
19167;SDS011;9716;53.114;18.040;2022-10-16T12:00:52;6.50;;;2.95;;
19167;SDS011;9716;53.114;18.040;2022-10-16T12:03:27;4.32;;;2.72;;
19167;SDS011;9716;53.114;18.040;2022-10-16T12:06:04;5.25;;;2.85;;
19167;SDS011;9716;53.114;18.040;2022-10-16T12:08:44;2.28;;;2.08;;
19167;SDS011;9716;53.114;18.040;2022-10-16T12:11:23;4.40;;;2.63;;
19167;SDS011;9716;53.114;18.040;2022-10-16T12:14:07;3.88;;;2.33;;
19167;SDS011;9716;53.114;18.040;2022-10-16T12:16:51;5.88;;;2.72;;
19167;SDS011;9716;53.114;18.040;2022-10-16T12:19:20;5.93;;;3.22;;
19167;SDS011;9716;53.114;18.040;2022-10-16T12:21:54;6.20;;;3.38;;
19167;SDS011;9716;53.114;18.040;2022-10-16T12:24:29;4.05;;;3.15;;
19167;SDS011;9716;53.114;18.040;2022-10-16T12:27:01;4.45;;;2.95;;
19167;SDS011;9716;53.114;18.040;2022-10-16T12:29:34;4.78;;;2.65;;
19167;SDS011;9716;53.114;18.040;2022-10-16T12:32:05;4.63;;;2.60;;
19167;SDS011;9716;53.114;18.040;2022-10-16T12:35:17;3.53;;;2.70;;
19167;SDS011;9716;53.114;18.040;2022-10-16T12:37:49;5.03;;;3.17;;
19167;SDS011;9716;53.114;18.040;2022-10-16T12:40:26;4.78;;;2.88;;
19167;SDS011;9716;53.114;18.040;2022-10-16T12:42:58;4.47;;;3.00;;
19167;SDS011;9716;53.114;18.040;2022-10-16T12:45:28;3.25;;;2.45;;
19167;SDS011;9716;53.114;18.040;2022-10-16T12:47:58;3.38;;;2.40;;
19167;SDS011;9716;53.114;18.040;2022-10-16T12:50:30;7.20;;;2.80;;
19167;SDS011;9716;53.114;18.040;2022-10-16T12:53:03;5.88;;;3.63;;
19167;SDS011;9716;53.114;18.040;2022-10-16T12:55:46;5.20;;;3.08;;
19167;SDS011;9716;53.114;18.040;2022-10-16T12:58:31;4.88;;;2.80;;
19167;SDS011;9716;53.114;18.040;2022-10-16T13:01:13;4.35;;;2.78;;
19167;SDS011;9716;53.114;18.040;2022-10-16T13:04:04;4.13;;;3.08;;
19167;SDS011;9716;53.114;18.040;2022-10-16T13:06:56;3.42;;;2.70;;
19167;SDS011;9716;53.114;18.040;2022-10-16T13:09:39;4.05;;;2.85;;
19167;SDS011;9716;53.114;18.040;2022-10-16T13:12:17;4.82;;;3.15;;
19167;SDS011;9716;53.114;18.040;2022-10-16T13:15:04;4.60;;;2.83;;
19167;SDS011;9716;53.114;18.040;2022-10-16T13:17:45;4.72;;;2.63;;
19167;SDS011;9716;53.114;18.040;2022-10-16T13:20:21;4.53;;;3.33;;
19167;SDS011;9716;53.114;18.040;2022-10-16T13:22:59;6.78;;;3.03;;
19167;SDS011;9716;53.114;18.040;2022-10-16T13:25:40;4.97;;;3.17;;
19167;SDS011;9716;53.114;18.040;2022-10-16T13:28:17;3.72;;;2.90;;
19167;SDS011;9716;53.114;18.040;2022-10-16T13:30:51;3.47;;;2.80;;
19167;SDS011;9716;53.114;18.040;2022-10-16T13:33:23;2.47;;;2.00;;
19167;SDS011;9716;53.114;18.040;2022-10-16T13:35:58;6.53;;;2.95;;
19167;SDS011;9716;53.114;18.040;2022-10-16T13:38:27;5.15;;;3.05;;
19167;SDS011;9716;53.114;18.040;2022-10-16T13:41:00;5.30;;;3.42;;
19167;SDS011;9716;53.114;18.040;2022-10-16T13:43:31;5.57;;;3.55;;
19167;SDS011;9716;53.114;18.040;2022-10-16T13:46:03;11.55;;;3.20;;
19167;SDS011;9716;53.114;18.040;2022-10-16T13:48:33;3.38;;;2.42;;
19167;SDS011;9716;53.114;18.040;2022-10-16T13:51:03;3.92;;;2.80;;
19167;SDS011;9716;53.114;18.040;2022-10-16T13:53:34;4.05;;;3.10;;
19167;SDS011;9716;53.114;18.040;2022-10-16T13:56:05;12.30;;;3.15;;
19167;SDS011;9716;53.114;18.040;2022-10-16T13:58:37;3.50;;;2.80;;
19167;SDS011;9716;53.114;18.040;2022-10-16T14:01:11;5.28;;;2.67;;
19167;SDS011;9716;53.114;18.040;2022-10-16T14:03:44;4.18;;;2.83;;
19167;SDS011;9716;53.114;18.040;2022-10-16T14:06:14;6.55;;;3.22;;
19167;SDS011;9716;53.114;18.040;2022-10-16T14:08:45;4.00;;;3.03;;
19167;SDS011;9716;53.114;18.040;2022-10-16T14:11:21;12.52;;;3.20;;
19167;SDS011;9716;53.114;18.040;2022-10-16T14:13:51;3.35;;;2.33;;
19167;SDS011;9716;53.114;18.040;2022-10-16T14:16:21;3.70;;;2.67;;
19167;SDS011;9716;53.114;18.040;2022-10-16T14:18:55;3.85;;;2.53;;
19167;SDS011;9716;53.114;18.040;2022-10-16T14:21:25;4.28;;;2.85;;
19167;SDS011;9716;53.114;18.040;2022-10-16T14:23:54;3.53;;;2.33;;
19167;SDS011;9716;53.114;18.040;2022-10-16T14:26:25;4.47;;;2.78;;
19167;SDS011;9716;53.114;18.040;2022-10-16T14:29:02;6.25;;;2.97;;
19167;SDS011;9716;53.114;18.040;2022-10-16T14:31:38;4.07;;;2.58;;
19167;SDS011;9716;53.114;18.040;2022-10-16T14:36:54;4.10;;;2.83;;
19167;SDS011;9716;53.114;18.040;2022-10-16T14:39:23;3.85;;;2.50;;
19167;SDS011;9716;53.114;18.040;2022-10-16T14:41:55;4.00;;;2.78;;
19167;SDS011;9716;53.114;18.040;2022-10-16T14:44:29;3.72;;;2.78;;
19167;SDS011;9716;53.114;18.040;2022-10-16T14:47:07;3.78;;;3.25;;
19167;SDS011;9716;53.114;18.040;2022-10-16T14:49:40;4.65;;;2.70;;
19167;SDS011;9716;53.114;18.040;2022-10-16T14:52:10;3.30;;;2.58;;
19167;SDS011;9716;53.114;18.040;2022-10-16T14:54:39;5.10;;;3.00;;
19167;SDS011;9716;53.114;18.040;2022-10-16T14:57:15;6.40;;;3.55;;
19167;SDS011;9716;53.114;18.040;2022-10-16T14:59:45;4.78;;;3.42;;
19167;SDS011;9716;53.114;18.040;2022-10-16T15:02:18;9.77;;;3.65;;
19167;SDS011;9716;53.114;18.040;2022-10-16T15:04:50;5.53;;;3.88;;
19167;SDS011;9716;53.114;18.040;2022-10-16T15:07:19;7.72;;;3.25;;
19167;SDS011;9716;53.114;18.040;2022-10-16T15:09:47;3.80;;;3.03;;